Aérodrome :
LOGIN :

S'inscrire | Disclaimer

   EN    FR    IT 

 










Légende :    VFR   VFR Marginal   IFR   IFR Intensif   IFR Très Intensif
Visi : 
Plafond : 
>= 8 km
>= 3000ft
5 à 8 km
1000 à 3000 ft
1500m à 5 km
500 à 1000 ft
800 à 1500m
200 à 500 ft
< 800m
< 200 ft
Symboles :   Orages  Brouillard  Fortes neiges  Fortes précipitations  Vent > 20 kt
SIGMETs :   Divers  Orages  Givrage  Turbulence  Onde Orograph.  Cendres Volcan.







- Altitude de l'aérodrome : 17 ft
- Code IATA : GRQ


EHGG - Groningen Eelde

DERNIER METAR :
  • 190655Z AUTO 12003KT 090V170 9999 NCD 21/17 Q1007 NOSIG

METARs EXPIRÉS :
  • 190625Z AUTO 12005KT 080V160 9000 NCD 19/16 Q1007 NOSIG
  • 190555Z AUTO 10006KT 070V140 9999 NCD 18/16 Q1007 NOSIG
  • 190525Z AUTO 11004KT 060V150 9999 NSC 18/15 Q1007 NOSIG
  • 190455Z AUTO 09004KT 9999 NCD 17/14 Q1008 NOSIG
  • 190425Z AUTO 09004KT 9999 NCD 16/14 Q1008 NOSIG
  • 190355Z AUTO 09004KT 9999 NCD 16/14 Q1008

TAF TAF EHGG
Valide du 19 à 06h jusqu'au 20 à 12h UTC


190517Z 1906/2012 12005KT CAVOK
TEMPO 1912/1922 23015G25KT 6000 SHRA TSRA SCT070CB
PROB30
TEMPO 1914/1920 24030G40KT 2000 +TSRAGR BKN060CB
BECMG 1922/2001 4000 BR BKN008
PROB30
TEMPO 1922/2008 24015KT SHRA BKN008 SCT040CB
PROB30 2000/2006 2500 BKN004
BECMG 2006/2009 9999 NSW SCT020
PROB30
TEMPO 2008/2012 24015KT 6000 SHRA SCT030CB
Pas de NOTAMs connus pour ce terrain.
1 SIGMET publié pour la FIR Amsterdam (EHAA) :
 
Orages fréquents avec grêle
EHAA SIGMET 1 VALID 190530/190730 EHDB
EHAA AMSTERDAM FIR FRQ TSGR OBS WI N5126 E00301 - N5203 E00348 - N5148 E00454 - N5129 E00449 - N5113 E00359 - N5126 E00301 TOP FL400 MOV NE 35KT WKN=



MET'MAP, la Météo Aéronautique d'un coup d'oeil ! - Copyright ORBIFLY Décembre 2007 - Disclaimer

ORBIFLY MET'MAP TEAM :

Programmation & Développement : Alexandra Zaïnal
Conception & Développement : Baudouin d'Aumeries
Co-Programmation & Développement : Marc-Olivier Méhu
Soutien technique & logistique : Manuel Goepfert

Contact : metmap@orbifly.com




SOURCES & CREDITS :

   NOAA